BCS13G EGPH-DAAG
Flight info
| Callsign | BCS13G |
|---|---|
| Flight time | 2h 46m |
| Altitude | 31000 |
| Route | GOSAM P600 FENIK L612 ELBUS DCT HON DCT SITET UN859 SOPIL DCT BALAN DCT EVPOK/N0455F330 DCT NARAK DCT GAI DCT LOMRA DCT ROCAN DCT PUMAL N859 GENIO DCT BUYAH UA27 ALR |
| Aircraft | A306/H-SDE3FGHIRWY/LB1 |
Departure
| Time | 2026-04-21 16:40 |
|---|---|
| Airport | Edinburgh Airport (EGPH) |
Arrival
| Time | 2026-04-21 19:27 |
|---|---|
| Airport | Houari Boumediene Airport (DAAG) |
| Time | Latitude | Longitude | Altitude | Speed | Heading |
|---|---|---|---|---|---|
| 2026-04-21 16:18 | 55.94993 | -3.34755 | 116 ft | 0 kts | 27° |
| 2026-04-21 16:22 | 55.94993 | -3.34754 | 116 ft | 0 kts | 27° |
| 2026-04-21 16:25 | 55.94993 | -3.34755 | 116 ft | 0 kts | 27° |
| 2026-04-21 16:30 | 55.94992 | -3.34756 | 116 ft | 2 kts | 27° |
| 2026-04-21 16:30 | 55.94969 | -3.34777 | 111 ft | 4 kts | 28° |
| 2026-04-21 16:30 | 55.94947 | -3.34795 | 111 ft | 4 kts | 1° |
| 2026-04-21 16:31 | 55.94926 | -3.34781 | 112 ft | 4 kts | 302° |
| 2026-04-21 16:31 | 55.94915 | -3.34745 | 112 ft | 2 kts | 298° |
| 2026-04-21 16:31 | 55.94903 | -3.34706 | 112 ft | 4 kts | 298° |
| 2026-04-21 16:31 | 55.94898 | -3.34687 | 112 ft | 0 kts | 298° |
| 2026-04-21 16:33 | 55.94905 | -3.34713 | 112 ft | 7 kts | 295° |
| 2026-04-21 16:33 | 55.94911 | -3.34827 | 114 ft | 9 kts | 239° |
| 2026-04-21 16:34 | 55.94868 | -3.34874 | 114 ft | 7 kts | 207° |
| 2026-04-21 16:34 | 55.94830 | -3.34941 | 115 ft | 8 kts | 250° |
| 2026-04-21 16:34 | 55.94853 | -3.35042 | 115 ft | 11 kts | 298° |
| 2026-04-21 16:34 | 55.94896 | -3.35182 | 116 ft | 15 kts | 297° |
| 2026-04-21 16:35 | 55.94950 | -3.35369 | 113 ft | 19 kts | 299° |
| 2026-04-21 16:35 | 55.95022 | -3.35589 | 111 ft | 22 kts | 300° |
| 2026-04-21 16:35 | 55.95103 | -3.35821 | 113 ft | 22 kts | 301° |
| 2026-04-21 16:35 | 55.95172 | -3.35944 | 110 ft | 13 kts | 324° |
| 2026-04-21 16:36 | 55.95202 | -3.36078 | 108 ft | 12 kts | 244° |
| 2026-04-21 16:36 | 55.95158 | -3.36207 | 110 ft | 15 kts | 238° |
| 2026-04-21 16:36 | 55.95095 | -3.36394 | 110 ft | 21 kts | 239° |
| 2026-04-21 16:36 | 55.95008 | -3.36646 | 112 ft | 27 kts | 236° |
| 2026-04-21 16:37 | 55.94901 | -3.36958 | 110 ft | 32 kts | 239° |
| 2026-04-21 16:37 | 55.94792 | -3.37284 | 110 ft | 28 kts | 240° |
| 2026-04-21 16:37 | 55.94699 | -3.37560 | 113 ft | 25 kts | 238° |
| 2026-04-21 16:37 | 55.94611 | -3.37826 | 117 ft | 25 kts | 240° |
| 2026-04-21 16:38 | 55.94519 | -3.38093 | 114 ft | 26 kts | 239° |
| 2026-04-21 16:38 | 55.94427 | -3.38361 | 117 ft | 24 kts | 237° |
| 2026-04-21 16:38 | 55.94345 | -3.38608 | 119 ft | 21 kts | 238° |
| 2026-04-21 16:38 | 55.94298 | -3.38748 | 120 ft | 0 kts | 239° |
| 2026-04-21 16:39 | 55.94288 | -3.38782 | 123 ft | 7 kts | 246° |
| 2026-04-21 16:39 | 55.94302 | -3.38880 | 122 ft | 11 kts | 323° |
| 2026-04-21 16:39 | 55.94393 | -3.38959 | 120 ft | 16 kts | 357° |
| 2026-04-21 16:39 | 55.94459 | -3.38841 | 121 ft | 16 kts | 59° |
| 2026-04-21 16:40 | 55.94616 | -3.38372 | 115 ft | 77 kts | 58° |
| 2026-04-21 16:40 | 55.95003 | -3.37233 | 112 ft | 137 kts | 59° |
| 2026-04-21 16:40 | 55.95577 | -3.35565 | 461 ft | 167 kts | 60° |
| 2026-04-21 16:40 | 55.96245 | -3.33833 | 1500 ft | 172 kts | 52° |
| 2026-04-21 16:41 | 55.97147 | -3.32255 | 1945 ft | 196 kts | 42° |
| 2026-04-21 16:41 | 55.98258 | -3.30736 | 2512 ft | 205 kts | 40° |
| 2026-04-21 16:41 | 55.99455 | -3.29124 | 2884 ft | 229 kts | 38° |
| 2026-04-21 16:41 | 56.00967 | -3.27945 | 3432 ft | 249 kts | 13° |
| 2026-04-21 16:42 | 56.02740 | -3.28206 | 4082 ft | 269 kts | 341° |
| 2026-04-21 16:42 | 56.04261 | -3.30225 | 4536 ft | 280 kts | 312° |
| 2026-04-21 16:42 | 56.05090 | -3.33407 | 4784 ft | 289 kts | 278° |
| 2026-04-21 16:42 | 56.04868 | -3.36901 | 5608 ft | 285 kts | 245° |
| 2026-04-21 16:43 | 56.03825 | -3.39930 | 6367 ft | 289 kts | 229° |
| 2026-04-21 16:43 | 56.02589 | -3.42749 | 7333 ft | 287 kts | 229° |
| 2026-04-21 16:43 | 56.01620 | -3.45877 | 8188 ft | 292 kts | 247° |
| 2026-04-21 16:43 | 56.01003 | -3.49378 | 8986 ft | 298 kts | 252° |
| 2026-04-21 16:44 | 56.00469 | -3.52963 | 9850 ft | 299 kts | 253° |
| 2026-04-21 16:44 | 55.99949 | -3.56579 | 10628 ft | 302 kts | 253° |
| 2026-04-21 16:44 | 55.99419 | -3.60285 | 11101 ft | 316 kts | 253° |
| 2026-04-21 16:44 | 55.98855 | -3.64211 | 11372 ft | 334 kts | 253° |
| 2026-04-21 16:45 | 55.98263 | -3.68332 | 11641 ft | 351 kts | 253° |
| 2026-04-21 16:45 | 55.97644 | -3.72642 | 11914 ft | 366 kts | 254° |
| 2026-04-21 16:45 | 55.96997 | -3.77129 | 12163 ft | 380 kts | 254° |
| 2026-04-21 16:45 | 55.96327 | -3.81771 | 12456 ft | 392 kts | 254° |
| 2026-04-21 16:46 | 55.95638 | -3.86528 | 12879 ft | 399 kts | 254° |
| 2026-04-21 16:46 | 55.94874 | -3.91319 | 13415 ft | 402 kts | 249° |
| 2026-04-21 16:46 | 55.93668 | -3.95814 | 13986 ft | 402 kts | 235° |
| 2026-04-21 16:46 | 55.91894 | -3.99652 | 14538 ft | 400 kts | 221° |
| 2026-04-21 16:47 | 55.89834 | -4.02998 | 15028 ft | 402 kts | 218° |
| 2026-04-21 16:47 | 55.87743 | -4.06245 | 15503 ft | 405 kts | 218° |
| 2026-04-21 16:47 | 55.85609 | -4.09553 | 15990 ft | 409 kts | 218° |
| 2026-04-21 16:47 | 55.83455 | -4.12903 | 16479 ft | 412 kts | 218° |
| 2026-04-21 16:48 | 55.81289 | -4.16278 | 16980 ft | 415 kts | 218° |
| 2026-04-21 16:48 | 55.79095 | -4.19641 | 17489 ft | 418 kts | 216° |
| 2026-04-21 16:48 | 55.76783 | -4.22825 | 17942 ft | 420 kts | 213° |
| 2026-04-21 16:48 | 55.74272 | -4.25438 | 18420 ft | 418 kts | 199° |
| 2026-04-21 16:49 | 55.71496 | -4.26606 | 18857 ft | 414 kts | 180° |
| 2026-04-21 16:49 | 55.68665 | -4.26113 | 19314 ft | 407 kts | 162° |
| 2026-04-21 16:49 | 55.66020 | -4.24374 | 19738 ft | 406 kts | 153° |
| 2026-04-21 16:49 | 55.63498 | -4.22076 | 20121 ft | 407 kts | 148° |
| 2026-04-21 16:50 | 55.61058 | -4.19542 | 20573 ft | 407 kts | 146° |
| 2026-04-21 16:50 | 55.58627 | -4.16937 | 20900 ft | 411 kts | 146° |
| 2026-04-21 16:50 | 55.56173 | -4.14340 | 21296 ft | 412 kts | 147° |
| 2026-04-21 16:50 | 55.53687 | -4.11780 | 21624 ft | 416 kts | 148° |
| 2026-04-21 16:51 | 55.51154 | -4.09239 | 21924 ft | 420 kts | 149° |
| 2026-04-21 16:51 | 55.48577 | -4.06771 | 22301 ft | 422 kts | 150° |
| 2026-04-21 16:51 | 55.45937 | -4.04465 | 22678 ft | 424 kts | 152° |
| 2026-04-21 16:51 | 55.43267 | -4.02252 | 23158 ft | 424 kts | 153° |
| 2026-04-21 16:52 | 55.40616 | -4.00099 | 23543 ft | 424 kts | 153° |
| 2026-04-21 16:52 | 55.37931 | -3.97924 | 23875 ft | 427 kts | 153° |
| 2026-04-21 16:52 | 55.35221 | -3.95718 | 24082 ft | 431 kts | 153° |
| 2026-04-21 16:52 | 55.32505 | -3.93493 | 24456 ft | 430 kts | 153° |
| 2026-04-21 16:53 | 55.29789 | -3.91259 | 24642 ft | 434 kts | 153° |
| 2026-04-21 16:53 | 55.27045 | -3.88996 | 24917 ft | 435 kts | 152° |
| 2026-04-21 16:53 | 55.24311 | -3.86740 | 25167 ft | 437 kts | 153° |
| 2026-04-21 16:53 | 55.21537 | -3.84451 | 25253 ft | 443 kts | 153° |
| 2026-04-21 16:54 | 55.18747 | -3.82154 | 25523 ft | 444 kts | 154° |
| 2026-04-21 16:54 | 55.15932 | -3.79842 | 25629 ft | 449 kts | 154° |
| 2026-04-21 16:54 | 55.13093 | -3.77516 | 25783 ft | 453 kts | 154° |
| 2026-04-21 16:54 | 55.10232 | -3.75176 | 25981 ft | 455 kts | 154° |
| 2026-04-21 16:55 | 55.07367 | -3.72838 | 26267 ft | 455 kts | 155° |
| 2026-04-21 16:55 | 55.04487 | -3.70490 | 26465 ft | 457 kts | 155° |
| 2026-04-21 16:55 | 55.01598 | -3.68138 | 26630 ft | 460 kts | 155° |
| 2026-04-21 16:55 | 54.98688 | -3.65773 | 26831 ft | 461 kts | 155° |
| 2026-04-21 16:56 | 54.95769 | -3.63404 | 27035 ft | 463 kts | 155° |
| 2026-04-21 16:56 | 54.92836 | -3.61026 | 27002 ft | 470 kts | 156° |
| 2026-04-21 16:56 | 54.89844 | -3.58607 | 27064 ft | 475 kts | 156° |
| 2026-04-21 16:56 | 54.86847 | -3.56187 | 27252 ft | 476 kts | 156° |
| 2026-04-21 16:57 | 54.83868 | -3.53786 | 27441 ft | 478 kts | 156° |
| 2026-04-21 16:57 | 54.80848 | -3.51353 | 27597 ft | 480 kts | 156° |
| 2026-04-21 16:57 | 54.77814 | -3.48915 | 27814 ft | 481 kts | 156° |
| 2026-04-21 16:57 | 54.74775 | -3.46474 | 28028 ft | 482 kts | 157° |
| 2026-04-21 16:58 | 54.71723 | -3.44029 | 28154 ft | 485 kts | 156° |
| 2026-04-21 16:58 | 54.68676 | -3.41589 | 28496 ft | 483 kts | 157° |
| 2026-04-21 16:58 | 54.65613 | -3.39142 | 28585 ft | 487 kts | 157° |
| 2026-04-21 16:58 | 54.62531 | -3.36687 | 28808 ft | 487 kts | 157° |
| 2026-04-21 16:59 | 54.59451 | -3.34237 | 29051 ft | 488 kts | 158° |
| 2026-04-21 16:59 | 54.56365 | -3.31784 | 29285 ft | 488 kts | 158° |
| 2026-04-21 16:59 | 54.53271 | -3.29330 | 29468 ft | 489 kts | 158° |
| 2026-04-21 16:59 | 54.50172 | -3.26877 | 29683 ft | 490 kts | 158° |
| 2026-04-21 17:00 | 54.47073 | -3.24428 | 29882 ft | 491 kts | 158° |
| 2026-04-21 17:00 | 54.43999 | -3.22002 | 30064 ft | 493 kts | 159° |
| 2026-04-21 17:00 | 54.41877 | -3.20333 | 29900 ft | 500 kts | 159° |
| 2026-04-21 17:00 | 54.37677 | -3.17035 | 30312 ft | 498 kts | 158° |
| 2026-04-21 17:01 | 54.34543 | -3.14570 | 30687 ft | 495 kts | 158° |
| 2026-04-21 17:01 | 54.31410 | -3.12108 | 30914 ft | 495 kts | 158° |
| 2026-04-21 17:01 | 54.28289 | -3.09661 | 31166 ft | 494 kts | 158° |
| 2026-04-21 17:01 | 54.25166 | -3.07218 | 31364 ft | 493 kts | 158° |
| 2026-04-21 17:02 | 54.22053 | -3.04789 | 31403 ft | 489 kts | 158° |
| 2026-04-21 17:02 | 54.15871 | -2.99979 | 31404 ft | 489 kts | 159° |
| 2026-04-21 17:03 | 54.09645 | -2.95156 | 31396 ft | 492 kts | 159° |
| 2026-04-21 17:03 | 54.03401 | -2.90331 | 31388 ft | 493 kts | 159° |
| 2026-04-21 17:04 | 53.97186 | -2.85542 | 31379 ft | 493 kts | 159° |
| 2026-04-21 17:04 | 53.90917 | -2.80730 | 31391 ft | 498 kts | 160° |
| 2026-04-21 17:05 | 53.84576 | -2.75880 | 31386 ft | 501 kts | 160° |
| 2026-04-21 17:05 | 53.78216 | -2.71024 | 31385 ft | 500 kts | 160° |
| 2026-04-21 17:06 | 53.71863 | -2.66191 | 31384 ft | 501 kts | 160° |
| 2026-04-21 17:06 | 53.65498 | -2.61371 | 31379 ft | 503 kts | 160° |
| 2026-04-21 17:07 | 53.60180 | -2.57358 | 31382 ft | 504 kts | 160° |
| 2026-04-21 17:07 | 53.52751 | -2.51763 | 31380 ft | 503 kts | 160° |
| 2026-04-21 17:08 | 53.46359 | -2.46967 | 31374 ft | 503 kts | 160° |
| 2026-04-21 17:08 | 53.39964 | -2.42186 | 31373 ft | 503 kts | 160° |
| 2026-04-21 17:09 | 53.30362 | -2.35037 | 31373 ft | 503 kts | 160° |
| 2026-04-21 17:09 | 53.23959 | -2.30289 | 31374 ft | 503 kts | 160° |
| 2026-04-21 17:10 | 53.17547 | -2.25551 | 31372 ft | 505 kts | 160° |
| 2026-04-21 17:10 | 53.11106 | -2.20809 | 31368 ft | 506 kts | 160° |
| 2026-04-21 17:11 | 53.04699 | -2.16103 | 31363 ft | 506 kts | 160° |
| 2026-04-21 17:11 | 52.98252 | -2.11386 | 31338 ft | 506 kts | 160° |
| 2026-04-21 17:12 | 52.91796 | -2.06677 | 31355 ft | 506 kts | 160° |
| 2026-04-21 17:12 | 52.85350 | -2.01992 | 31353 ft | 506 kts | 160° |
| 2026-04-21 17:13 | 52.78884 | -1.97306 | 31352 ft | 508 kts | 160° |
| 2026-04-21 17:13 | 52.72400 | -1.92621 | 31342 ft | 509 kts | 160° |
| 2026-04-21 17:14 | 52.65913 | -1.87949 | 31346 ft | 509 kts | 160° |
| 2026-04-21 17:14 | 52.59427 | -1.83296 | 31360 ft | 508 kts | 160° |
| 2026-04-21 17:15 | 52.52983 | -1.78687 | 31345 ft | 508 kts | 160° |
| 2026-04-21 17:15 | 52.46503 | -1.74068 | 31349 ft | 507 kts | 160° |
| 2026-04-21 17:16 | 52.40034 | -1.69470 | 31345 ft | 506 kts | 160° |
| 2026-04-21 17:16 | 52.33576 | -1.64825 | 31351 ft | 507 kts | 159° |
| 2026-04-21 17:17 | 52.27197 | -1.59898 | 31341 ft | 508 kts | 158° |
| 2026-04-21 17:17 | 52.20838 | -1.54909 | 31367 ft | 506 kts | 158° |
| 2026-04-21 17:18 | 52.15525 | -1.50775 | 31368 ft | 505 kts | 158° |
| 2026-04-21 17:18 | 52.09172 | -1.45876 | 31370 ft | 505 kts | 158° |
| 2026-04-21 17:19 | 52.02783 | -1.40978 | 31495 ft | 506 kts | 158° |
| 2026-04-21 17:19 | 51.99606 | -1.38547 | 31747 ft | 505 kts | 158° |
| 2026-04-21 17:19 | 51.96431 | -1.36121 | 32004 ft | 503 kts | 158° |
| 2026-04-21 17:20 | 51.93266 | -1.33706 | 32255 ft | 501 kts | 158° |
| 2026-04-21 17:20 | 51.90115 | -1.31305 | 32516 ft | 500 kts | 158° |
| 2026-04-21 17:20 | 51.87018 | -1.28949 | 32766 ft | 498 kts | 158° |
| 2026-04-21 17:20 | 51.83886 | -1.26570 | 33031 ft | 496 kts | 158° |
| 2026-04-21 17:21 | 51.80765 | -1.24203 | 33257 ft | 495 kts | 158° |
| 2026-04-21 17:21 | 51.77634 | -1.21835 | 33288 ft | 498 kts | 159° |
| 2026-04-21 17:21 | 51.71365 | -1.17103 | 33265 ft | 497 kts | 159° |
| 2026-04-21 17:22 | 51.65103 | -1.12389 | 33265 ft | 496 kts | 159° |
| 2026-04-21 17:22 | 51.58841 | -1.07688 | 33269 ft | 496 kts | 159° |
| 2026-04-21 17:23 | 51.52581 | -1.03002 | 33260 ft | 497 kts | 159° |
| 2026-04-21 17:23 | 51.46293 | -0.98311 | 33264 ft | 499 kts | 159° |
| 2026-04-21 17:24 | 51.39996 | -0.93627 | 33284 ft | 500 kts | 159° |
| 2026-04-21 17:24 | 51.33647 | -0.88922 | 33275 ft | 504 kts | 159° |
| 2026-04-21 17:25 | 51.27289 | -0.84220 | 33254 ft | 503 kts | 159° |
| 2026-04-21 17:25 | 51.20948 | -0.79543 | 33255 ft | 502 kts | 159° |
| 2026-04-21 17:26 | 51.14647 | -0.74914 | 33266 ft | 502 kts | 159° |
| 2026-04-21 17:26 | 51.08268 | -0.70241 | 33277 ft | 501 kts | 159° |
| 2026-04-21 17:27 | 51.01924 | -0.65608 | 33261 ft | 502 kts | 159° |
| 2026-04-21 17:27 | 50.95618 | -0.61016 | 33248 ft | 502 kts | 159° |
| 2026-04-21 17:28 | 50.89267 | -0.56406 | 33241 ft | 502 kts | 159° |
| 2026-04-21 17:28 | 50.82920 | -0.51813 | 33240 ft | 500 kts | 159° |
| 2026-04-21 17:29 | 50.76595 | -0.47247 | 33240 ft | 500 kts | 159° |
| 2026-04-21 17:29 | 50.70266 | -0.42694 | 33241 ft | 500 kts | 159° |
| 2026-04-21 17:30 | 50.63939 | -0.38157 | 33221 ft | 500 kts | 160° |
| 2026-04-21 17:30 | 50.57611 | -0.33644 | 33238 ft | 499 kts | 159° |
| 2026-04-21 17:31 | 50.51289 | -0.29129 | 33239 ft | 498 kts | 159° |
| 2026-04-21 17:31 | 50.44967 | -0.24629 | 33235 ft | 498 kts | 159° |
| 2026-04-21 17:32 | 50.38695 | -0.20181 | 33223 ft | 498 kts | 159° |
| 2026-04-21 17:32 | 50.32386 | -0.15721 | 33215 ft | 497 kts | 159° |
| 2026-04-21 17:33 | 50.26074 | -0.11273 | 33219 ft | 497 kts | 160° |
| 2026-04-21 17:33 | 50.19762 | -0.06839 | 33211 ft | 497 kts | 160° |
| 2026-04-21 17:34 | 50.13460 | -0.02423 | 33205 ft | 496 kts | 160° |
| 2026-04-21 17:34 | 50.07004 | 0.01146 | 33209 ft | 491 kts | 169° |
| 2026-04-21 17:35 | 50.00373 | 0.03876 | 33200 ft | 493 kts | 171° |
| 2026-04-21 17:35 | 49.93719 | 0.06458 | 33194 ft | 492 kts | 171° |
| 2026-04-21 17:36 | 49.87123 | 0.09011 | 33194 ft | 491 kts | 171° |
| 2026-04-21 17:36 | 49.80488 | 0.11594 | 33180 ft | 491 kts | 171° |
| 2026-04-21 17:37 | 49.73853 | 0.14180 | 33153 ft | 491 kts | 171° |
| 2026-04-21 17:37 | 49.67209 | 0.16774 | 33165 ft | 490 kts | 171° |
| 2026-04-21 17:38 | 49.60641 | 0.19410 | 33157 ft | 490 kts | 170° |
| 2026-04-21 17:38 | 49.54041 | 0.22079 | 33158 ft | 490 kts | 170° |
| 2026-04-21 17:39 | 49.47444 | 0.24735 | 33153 ft | 489 kts | 171° |
| 2026-04-21 17:39 | 49.40867 | 0.27368 | 33168 ft | 488 kts | 171° |
| 2026-04-21 17:40 | 49.34291 | 0.29990 | 33170 ft | 488 kts | 171° |
| 2026-04-21 17:40 | 49.27723 | 0.32651 | 33153 ft | 488 kts | 170° |
| 2026-04-21 17:41 | 49.21170 | 0.35417 | 33151 ft | 487 kts | 169° |
| 2026-04-21 17:41 | 49.14626 | 0.38189 | 33147 ft | 487 kts | 170° |
| 2026-04-21 17:42 | 49.08126 | 0.40926 | 33138 ft | 487 kts | 170° |
| 2026-04-21 17:42 | 49.01592 | 0.43660 | 33134 ft | 486 kts | 170° |
| 2026-04-21 17:43 | 48.95054 | 0.46385 | 33140 ft | 488 kts | 170° |
| 2026-04-21 17:43 | 48.88485 | 0.49114 | 33141 ft | 490 kts | 170° |
| 2026-04-21 17:44 | 48.81909 | 0.51843 | 33133 ft | 490 kts | 170° |
| 2026-04-21 17:44 | 48.75321 | 0.54524 | 33133 ft | 489 kts | 171° |
| 2026-04-21 17:45 | 48.68766 | 0.57091 | 33131 ft | 489 kts | 171° |
| 2026-04-21 17:45 | 48.62129 | 0.59669 | 33122 ft | 489 kts | 171° |
| 2026-04-21 17:46 | 48.55598 | 0.62211 | 33114 ft | 487 kts | 171° |
| 2026-04-21 17:46 | 48.49039 | 0.64795 | 33123 ft | 487 kts | 171° |
| 2026-04-21 17:47 | 48.42495 | 0.67457 | 33099 ft | 487 kts | 170° |
| 2026-04-21 17:47 | 48.35959 | 0.70127 | 33106 ft | 486 kts | 170° |
| 2026-04-21 17:48 | 48.29432 | 0.72778 | 33097 ft | 486 kts | 170° |
| 2026-04-21 17:48 | 48.22902 | 0.75402 | 33102 ft | 485 kts | 171° |
| 2026-04-21 17:49 | 48.16367 | 0.77976 | 33093 ft | 484 kts | 171° |
| 2026-04-21 17:49 | 48.09850 | 0.80527 | 33092 ft | 484 kts | 171° |
| 2026-04-21 17:50 | 48.03337 | 0.83073 | 33084 ft | 484 kts | 171° |
| 2026-04-21 17:50 | 47.96862 | 0.85602 | 33087 ft | 484 kts | 171° |
| 2026-04-21 17:51 | 47.90325 | 0.88148 | 33075 ft | 486 kts | 171° |
| 2026-04-21 17:51 | 47.83775 | 0.90695 | 33073 ft | 486 kts | 171° |
| 2026-04-21 17:52 | 47.77222 | 0.93237 | 33063 ft | 486 kts | 171° |
| 2026-04-21 17:52 | 47.70677 | 0.95770 | 33062 ft | 485 kts | 171° |
| 2026-04-21 17:53 | 47.64137 | 0.98292 | 33064 ft | 486 kts | 171° |
| 2026-04-21 17:53 | 47.57594 | 1.00807 | 33051 ft | 485 kts | 171° |
| 2026-04-21 17:54 | 47.51054 | 1.03317 | 33050 ft | 485 kts | 171° |
| 2026-04-21 17:54 | 47.44524 | 1.05718 | 33044 ft | 481 kts | 176° |
| 2026-04-21 17:55 | 47.37981 | 1.06359 | 33023 ft | 471 kts | 186° |
| 2026-04-21 17:55 | 47.31438 | 1.06274 | 33044 ft | 470 kts | 188° |
| 2026-04-21 17:56 | 47.24895 | 1.06064 | 33045 ft | 470 kts | 188° |
| 2026-04-21 17:56 | 47.18355 | 1.05872 | 33036 ft | 470 kts | 187° |
| 2026-04-21 17:57 | 47.11811 | 1.05709 | 33031 ft | 470 kts | 187° |
| 2026-04-21 17:57 | 47.05229 | 1.05553 | 33031 ft | 475 kts | 187° |
| 2026-04-21 17:58 | 46.98619 | 1.05354 | 33023 ft | 475 kts | 188° |
| 2026-04-21 17:58 | 46.92019 | 1.05066 | 33022 ft | 474 kts | 188° |
| 2026-04-21 17:59 | 46.85436 | 1.04772 | 33022 ft | 473 kts | 188° |
| 2026-04-21 17:59 | 46.78895 | 1.04487 | 33018 ft | 473 kts | 188° |
| 2026-04-21 18:00 | 46.72312 | 1.04206 | 33014 ft | 473 kts | 188° |
| 2026-04-21 18:00 | 46.65723 | 1.03928 | 33008 ft | 473 kts | 188° |
| 2026-04-21 18:01 | 46.59131 | 1.03647 | 33000 ft | 473 kts | 188° |
| 2026-04-21 18:01 | 46.52536 | 1.03548 | 32986 ft | 478 kts | 181° |
| 2026-04-21 18:02 | 46.45931 | 1.05162 | 32986 ft | 484 kts | 173° |
| 2026-04-21 18:02 | 46.40463 | 1.06955 | 32984 ft | 485 kts | 172° |
| 2026-04-21 18:03 | 46.33896 | 1.09209 | 32983 ft | 485 kts | 172° |
| 2026-04-21 18:03 | 46.27324 | 1.11437 | 32975 ft | 484 kts | 172° |
| 2026-04-21 18:04 | 46.20750 | 1.13630 | 32973 ft | 484 kts | 172° |
| 2026-04-21 18:04 | 46.14216 | 1.15793 | 32954 ft | 484 kts | 172° |
| 2026-04-21 18:05 | 46.07650 | 1.17962 | 32948 ft | 484 kts | 172° |
| 2026-04-21 18:05 | 46.01088 | 1.20124 | 32945 ft | 484 kts | 172° |
| 2026-04-21 18:06 | 45.94506 | 1.22287 | 32932 ft | 485 kts | 172° |
| 2026-04-21 18:06 | 45.87930 | 1.24446 | 32936 ft | 484 kts | 172° |
| 2026-04-21 18:07 | 45.81359 | 1.26595 | 32937 ft | 484 kts | 172° |
| 2026-04-21 18:07 | 45.74827 | 1.28727 | 32934 ft | 484 kts | 172° |
| 2026-04-21 18:08 | 45.68265 | 1.30864 | 32927 ft | 483 kts | 172° |
| 2026-04-21 18:08 | 45.61706 | 1.32996 | 32926 ft | 483 kts | 172° |
| 2026-04-21 18:09 | 45.55138 | 1.35125 | 32918 ft | 483 kts | 172° |
| 2026-04-21 18:09 | 45.48582 | 1.37245 | 32914 ft | 482 kts | 172° |
| 2026-04-21 18:10 | 45.42034 | 1.39357 | 32908 ft | 482 kts | 172° |
| 2026-04-21 18:10 | 45.35531 | 1.41448 | 32899 ft | 482 kts | 172° |
| 2026-04-21 18:11 | 45.28990 | 1.43548 | 32900 ft | 481 kts | 172° |
| 2026-04-21 18:11 | 45.22457 | 1.45641 | 32886 ft | 481 kts | 172° |
| 2026-04-21 18:12 | 45.15923 | 1.47729 | 32874 ft | 481 kts | 172° |
| 2026-04-21 18:12 | 45.09398 | 1.49813 | 32881 ft | 480 kts | 172° |
| 2026-04-21 18:13 | 45.02885 | 1.51885 | 32878 ft | 480 kts | 172° |
| 2026-04-21 18:13 | 44.96365 | 1.53954 | 32884 ft | 481 kts | 172° |
| 2026-04-21 18:14 | 44.86561 | 1.57054 | 32880 ft | 481 kts | 172° |
| 2026-04-21 18:15 | 44.80015 | 1.59119 | 32886 ft | 481 kts | 172° |
| 2026-04-21 18:15 | 44.73478 | 1.61175 | 32880 ft | 481 kts | 172° |
| 2026-04-21 18:16 | 44.66969 | 1.63220 | 32889 ft | 481 kts | 172° |
| 2026-04-21 18:16 | 44.60428 | 1.65270 | 32879 ft | 481 kts | 172° |
| 2026-04-21 18:17 | 44.53888 | 1.67314 | 32871 ft | 481 kts | 172° |
| 2026-04-21 18:17 | 44.47354 | 1.69351 | 32876 ft | 480 kts | 172° |
| 2026-04-21 18:18 | 44.40832 | 1.71380 | 32860 ft | 480 kts | 172° |
| 2026-04-21 18:18 | 44.34347 | 1.73393 | 32886 ft | 479 kts | 172° |
| 2026-04-21 18:19 | 44.27829 | 1.75339 | 32876 ft | 478 kts | 174° |
| 2026-04-21 18:19 | 44.21275 | 1.76845 | 32875 ft | 476 kts | 176° |
| 2026-04-21 18:20 | 44.14715 | 1.78219 | 32871 ft | 476 kts | 176° |
| 2026-04-21 18:20 | 44.08170 | 1.79615 | 32867 ft | 476 kts | 175° |
| 2026-04-21 18:21 | 44.01624 | 1.81043 | 32869 ft | 476 kts | 175° |
| 2026-04-21 18:21 | 43.95114 | 1.82445 | 32861 ft | 475 kts | 177° |
| 2026-04-21 18:22 | 43.88558 | 1.83275 | 32861 ft | 472 kts | 180° |
| 2026-04-21 18:22 | 43.81996 | 1.83814 | 32869 ft | 472 kts | 181° |
| 2026-04-21 18:23 | 43.75435 | 1.84373 | 32865 ft | 472 kts | 180° |
| 2026-04-21 18:23 | 43.68882 | 1.84985 | 32864 ft | 472 kts | 180° |
| 2026-04-21 18:24 | 43.62329 | 1.85620 | 32861 ft | 472 kts | 180° |
| 2026-04-21 18:24 | 43.55784 | 1.86255 | 32861 ft | 471 kts | 180° |
| 2026-04-21 18:25 | 43.49237 | 1.86884 | 32860 ft | 471 kts | 180° |
| 2026-04-21 18:25 | 43.42744 | 1.87507 | 32855 ft | 471 kts | 180° |
| 2026-04-21 18:26 | 43.36209 | 1.88133 | 32854 ft | 470 kts | 180° |
| 2026-04-21 18:26 | 43.29687 | 1.88756 | 32856 ft | 470 kts | 180° |
| 2026-04-21 18:27 | 43.23160 | 1.89381 | 32855 ft | 469 kts | 180° |
| 2026-04-21 18:27 | 43.16647 | 1.90005 | 32862 ft | 470 kts | 180° |
| 2026-04-21 18:28 | 43.10166 | 1.90626 | 32863 ft | 461 kts | 180° |
| 2026-04-21 18:28 | 43.03780 | 1.91233 | 32875 ft | 458 kts | 180° |
| 2026-04-21 18:29 | 42.97455 | 1.91825 | 32885 ft | 458 kts | 180° |
| 2026-04-21 18:29 | 42.91100 | 1.92425 | 32890 ft | 458 kts | 179° |
| 2026-04-21 18:30 | 42.84732 | 1.93030 | 32887 ft | 458 kts | 179° |
| 2026-04-21 18:30 | 42.78379 | 1.93628 | 32904 ft | 458 kts | 180° |
| 2026-04-21 18:31 | 42.72007 | 1.94227 | 32914 ft | 458 kts | 179° |
| 2026-04-21 18:31 | 42.65638 | 1.94920 | 32933 ft | 460 kts | 177° |
| 2026-04-21 18:32 | 42.59320 | 1.96133 | 32931 ft | 461 kts | 174° |
| 2026-04-21 18:32 | 42.52986 | 1.97503 | 32942 ft | 460 kts | 174° |
| 2026-04-21 18:33 | 42.46654 | 1.98834 | 32937 ft | 460 kts | 175° |
| 2026-04-21 18:33 | 42.40329 | 2.00117 | 32943 ft | 460 kts | 175° |
| 2026-04-21 18:34 | 42.33987 | 2.01229 | 32937 ft | 459 kts | 178° |
| 2026-04-21 18:34 | 42.27617 | 2.01841 | 32938 ft | 458 kts | 180° |
| 2026-04-21 18:35 | 42.22325 | 2.02269 | 32936 ft | 458 kts | 180° |
| 2026-04-21 18:35 | 42.14926 | 2.02912 | 32918 ft | 459 kts | 179° |
| 2026-04-21 18:36 | 42.08544 | 2.03500 | 32931 ft | 460 kts | 179° |
| 2026-04-21 18:36 | 42.02151 | 2.04111 | 32914 ft | 460 kts | 179° |
| 2026-04-21 18:37 | 41.95760 | 2.04717 | 32911 ft | 460 kts | 179° |
| 2026-04-21 18:37 | 41.89364 | 2.05320 | 32921 ft | 461 kts | 179° |
| 2026-04-21 18:38 | 41.82964 | 2.05921 | 32916 ft | 461 kts | 179° |
| 2026-04-21 18:38 | 41.76565 | 2.06518 | 32913 ft | 461 kts | 179° |
| 2026-04-21 18:39 | 41.70174 | 2.07114 | 32915 ft | 459 kts | 179° |
| 2026-04-21 18:39 | 41.63804 | 2.07708 | 32910 ft | 458 kts | 179° |
| 2026-04-21 18:40 | 41.57484 | 2.08297 | 32913 ft | 458 kts | 179° |
| 2026-04-21 18:40 | 41.52157 | 2.08793 | 32908 ft | 458 kts | 179° |
| 2026-04-21 18:41 | 41.44761 | 2.09480 | 32932 ft | 457 kts | 179° |
| 2026-04-21 18:41 | 41.38408 | 2.10069 | 32937 ft | 457 kts | 179° |
| 2026-04-21 18:42 | 41.32066 | 2.10711 | 32926 ft | 458 kts | 175° |
| 2026-04-21 18:42 | 41.25814 | 2.12498 | 32939 ft | 459 kts | 168° |
| 2026-04-21 18:43 | 41.19682 | 2.14652 | 32938 ft | 459 kts | 167° |
| 2026-04-21 18:43 | 41.13515 | 2.16886 | 32936 ft | 459 kts | 167° |
| 2026-04-21 18:44 | 41.07339 | 2.19105 | 32923 ft | 459 kts | 167° |
| 2026-04-21 18:44 | 41.01170 | 2.21300 | 32935 ft | 458 kts | 167° |
| 2026-04-21 18:45 | 40.95006 | 2.23482 | 32942 ft | 458 kts | 167° |
| 2026-04-21 18:45 | 40.88845 | 2.25657 | 32923 ft | 458 kts | 167° |
| 2026-04-21 18:46 | 40.82717 | 2.27818 | 32927 ft | 459 kts | 167° |
| 2026-04-21 18:46 | 40.76547 | 2.29990 | 32930 ft | 459 kts | 168° |
| 2026-04-21 18:47 | 40.70370 | 2.32159 | 32922 ft | 460 kts | 168° |
| 2026-04-21 18:47 | 40.64174 | 2.34331 | 32928 ft | 460 kts | 168° |
| 2026-04-21 18:48 | 40.57981 | 2.36498 | 32928 ft | 460 kts | 168° |
| 2026-04-21 18:48 | 40.51793 | 2.38661 | 32924 ft | 460 kts | 168° |
| 2026-04-21 18:49 | 40.45602 | 2.40819 | 32929 ft | 460 kts | 168° |
| 2026-04-21 18:49 | 40.41508 | 2.42244 | 32920 ft | 460 kts | 168° |
| 2026-04-21 18:50 | 40.33268 | 2.45107 | 32932 ft | 459 kts | 168° |
| 2026-04-21 18:50 | 40.27089 | 2.47249 | 32918 ft | 459 kts | 168° |
| 2026-04-21 18:51 | 40.21909 | 2.49041 | 32903 ft | 459 kts | 168° |
| 2026-04-21 18:51 | 40.15733 | 2.51175 | 32923 ft | 459 kts | 168° |
| 2026-04-21 18:52 | 40.09565 | 2.53302 | 32918 ft | 458 kts | 168° |
| 2026-04-21 18:52 | 40.03431 | 2.55412 | 32925 ft | 459 kts | 168° |
| 2026-04-21 18:53 | 39.97252 | 2.57535 | 32923 ft | 459 kts | 169° |
| 2026-04-21 18:53 | 39.91076 | 2.59652 | 32921 ft | 459 kts | 169° |
| 2026-04-21 18:54 | 39.84898 | 2.61766 | 32916 ft | 459 kts | 169° |
| 2026-04-21 18:54 | 39.78723 | 2.63876 | 32916 ft | 459 kts | 169° |
| 2026-04-21 18:55 | 39.72541 | 2.65984 | 32912 ft | 459 kts | 169° |
| 2026-04-21 18:55 | 39.66358 | 2.68093 | 32912 ft | 459 kts | 169° |
| 2026-04-21 18:56 | 39.60202 | 2.70183 | 32911 ft | 459 kts | 169° |
| 2026-04-21 18:56 | 39.54002 | 2.72282 | 32901 ft | 460 kts | 169° |
| 2026-04-21 18:57 | 39.47843 | 2.74366 | 32909 ft | 460 kts | 170° |
| 2026-04-21 18:57 | 39.41658 | 2.76464 | 32914 ft | 460 kts | 169° |
| 2026-04-21 18:58 | 39.35473 | 2.78603 | 32924 ft | 460 kts | 169° |
| 2026-04-21 18:58 | 39.29289 | 2.80749 | 32924 ft | 460 kts | 169° |
| 2026-04-21 18:59 | 39.23104 | 2.82888 | 32924 ft | 460 kts | 170° |
| 2026-04-21 18:59 | 39.16917 | 2.85020 | 32926 ft | 460 kts | 170° |
| 2026-04-21 19:00 | 39.10715 | 2.87152 | 32924 ft | 460 kts | 170° |
| 2026-04-21 19:00 | 39.04519 | 2.89279 | 32931 ft | 461 kts | 170° |
| 2026-04-21 19:01 | 38.98318 | 2.91408 | 32927 ft | 461 kts | 170° |
| 2026-04-21 19:01 | 38.92162 | 2.93524 | 32936 ft | 461 kts | 170° |
| 2026-04-21 19:02 | 38.85955 | 2.95645 | 32927 ft | 461 kts | 170° |
| 2026-04-21 19:02 | 38.79746 | 2.97758 | 32928 ft | 462 kts | 170° |
| 2026-04-21 19:03 | 38.73527 | 2.99870 | 32925 ft | 462 kts | 170° |
| 2026-04-21 19:03 | 38.67343 | 3.01968 | 32920 ft | 462 kts | 170° |
| 2026-04-21 19:04 | 38.61119 | 3.04076 | 32910 ft | 462 kts | 170° |
| 2026-04-21 19:04 | 38.54911 | 3.06175 | 32930 ft | 461 kts | 170° |
| 2026-04-21 19:05 | 38.48698 | 3.08272 | 32929 ft | 462 kts | 170° |
| 2026-04-21 19:05 | 38.42479 | 3.10366 | 32920 ft | 462 kts | 170° |
| 2026-04-21 19:06 | 38.36260 | 3.12458 | 32919 ft | 462 kts | 170° |
| 2026-04-21 19:06 | 38.30053 | 3.14385 | 32924 ft | 458 kts | 176° |
| 2026-04-21 19:07 | 38.23748 | 3.14931 | 32924 ft | 453 kts | 183° |
| 2026-04-21 19:07 | 38.17447 | 3.15083 | 32917 ft | 452 kts | 184° |
| 2026-04-21 19:08 | 38.11106 | 3.15169 | 32570 ft | 461 kts | 184° |
| 2026-04-21 19:08 | 38.07895 | 3.15264 | 32329 ft | 462 kts | 183° |
| 2026-04-21 19:08 | 38.04692 | 3.15397 | 31870 ft | 460 kts | 182° |
| 2026-04-21 19:08 | 38.01483 | 3.15549 | 30987 ft | 463 kts | 182° |
| 2026-04-21 19:09 | 37.98280 | 3.15708 | 30373 ft | 459 kts | 182° |
| 2026-04-21 19:09 | 37.95096 | 3.15867 | 29682 ft | 455 kts | 182° |
| 2026-04-21 19:09 | 37.91943 | 3.16021 | 28999 ft | 451 kts | 182° |
| 2026-04-21 19:09 | 37.88824 | 3.16171 | 28359 ft | 446 kts | 182° |
| 2026-04-21 19:10 | 37.85732 | 3.16316 | 27736 ft | 442 kts | 182° |
| 2026-04-21 19:10 | 37.82709 | 3.16456 | 27124 ft | 438 kts | 182° |
| 2026-04-21 19:10 | 37.79674 | 3.16594 | 26504 ft | 435 kts | 182° |
| 2026-04-21 19:10 | 37.76663 | 3.16730 | 25900 ft | 431 kts | 182° |
| 2026-04-21 19:11 | 37.73674 | 3.16769 | 25290 ft | 426 kts | 186° |
| 2026-04-21 19:11 | 37.70742 | 3.16433 | 24674 ft | 421 kts | 191° |
| 2026-04-21 19:11 | 37.67855 | 3.15937 | 24120 ft | 417 kts | 192° |
| 2026-04-21 19:11 | 37.64994 | 3.15428 | 23575 ft | 413 kts | 192° |
| 2026-04-21 19:12 | 37.62159 | 3.14912 | 22936 ft | 410 kts | 192° |
| 2026-04-21 19:12 | 37.59330 | 3.14391 | 22146 ft | 410 kts | 192° |
| 2026-04-21 19:12 | 37.56508 | 3.13865 | 21442 ft | 409 kts | 192° |
| 2026-04-21 19:12 | 37.53703 | 3.13339 | 20815 ft | 406 kts | 192° |
| 2026-04-21 19:13 | 37.50951 | 3.12818 | 20221 ft | 403 kts | 192° |
| 2026-04-21 19:13 | 37.48182 | 3.12290 | 19638 ft | 400 kts | 192° |
| 2026-04-21 19:13 | 37.45438 | 3.11763 | 19082 ft | 397 kts | 192° |
| 2026-04-21 19:13 | 37.42715 | 3.11236 | 18520 ft | 395 kts | 192° |
| 2026-04-21 19:14 | 37.40008 | 3.10702 | 17925 ft | 392 kts | 192° |
| 2026-04-21 19:14 | 37.37319 | 3.10167 | 17312 ft | 389 kts | 192° |
| 2026-04-21 19:14 | 37.34658 | 3.09637 | 16749 ft | 386 kts | 192° |
| 2026-04-21 19:14 | 37.32020 | 3.09115 | 16176 ft | 382 kts | 192° |
| 2026-04-21 19:15 | 37.29410 | 3.08599 | 15619 ft | 378 kts | 192° |
| 2026-04-21 19:15 | 37.26815 | 3.08089 | 15045 ft | 375 kts | 192° |
| 2026-04-21 19:15 | 37.24247 | 3.07586 | 14501 ft | 372 kts | 192° |
| 2026-04-21 19:15 | 37.21694 | 3.07088 | 13961 ft | 369 kts | 192° |
| 2026-04-21 19:16 | 37.19167 | 3.06597 | 13378 ft | 366 kts | 192° |
| 2026-04-21 19:16 | 37.16656 | 3.06108 | 12772 ft | 363 kts | 192° |
| 2026-04-21 19:16 | 37.14174 | 3.05620 | 12203 ft | 359 kts | 192° |
| 2026-04-21 19:16 | 37.11746 | 3.05141 | 11635 ft | 356 kts | 192° |
| 2026-04-21 19:17 | 37.06900 | 3.04185 | 10674 ft | 345 kts | 192° |
| 2026-04-21 19:17 | 37.04585 | 3.03649 | 10459 ft | 331 kts | 197° |
| 2026-04-21 19:17 | 37.02421 | 3.02834 | 10266 ft | 317 kts | 201° |
| 2026-04-21 19:18 | 37.00368 | 3.01958 | 10084 ft | 306 kts | 202° |
| 2026-04-21 19:18 | 36.98390 | 3.01112 | 9913 ft | 295 kts | 202° |
| 2026-04-21 19:18 | 36.96468 | 3.00291 | 9646 ft | 288 kts | 202° |
| 2026-04-21 19:18 | 36.94579 | 2.99486 | 9308 ft | 285 kts | 201° |
| 2026-04-21 19:19 | 36.92694 | 2.98723 | 8903 ft | 285 kts | 197° |
| 2026-04-21 19:19 | 36.90756 | 2.98229 | 8505 ft | 283 kts | 192° |
| 2026-04-21 19:19 | 36.88819 | 2.97834 | 8004 ft | 281 kts | 192° |
| 2026-04-21 19:19 | 36.86890 | 2.97447 | 7512 ft | 280 kts | 192° |
| 2026-04-21 19:20 | 36.84975 | 2.97061 | 7040 ft | 277 kts | 192° |
| 2026-04-21 19:20 | 36.83074 | 2.96676 | 6571 ft | 276 kts | 192° |
| 2026-04-21 19:20 | 36.81189 | 2.96292 | 6161 ft | 271 kts | 192° |
| 2026-04-21 19:20 | 36.79393 | 2.95927 | 5944 ft | 251 kts | 192° |
| 2026-04-21 19:21 | 36.77725 | 2.95589 | 5511 ft | 238 kts | 192° |
| 2026-04-21 19:21 | 36.76159 | 2.95266 | 5229 ft | 224 kts | 192° |
| 2026-04-21 19:21 | 36.74676 | 2.94960 | 5022 ft | 209 kts | 192° |
| 2026-04-21 19:21 | 36.73274 | 2.94739 | 4754 ft | 201 kts | 179° |
| 2026-04-21 19:22 | 36.71979 | 2.95347 | 4423 ft | 203 kts | 141° |
| 2026-04-21 19:22 | 36.71089 | 2.96689 | 4149 ft | 199 kts | 124° |
| 2026-04-21 19:22 | 36.70374 | 2.98145 | 3808 ft | 195 kts | 122° |
| 2026-04-21 19:22 | 36.69782 | 2.99658 | 3489 ft | 192 kts | 108° |
| 2026-04-21 19:23 | 36.69573 | 3.01249 | 3346 ft | 180 kts | 94° |
| 2026-04-21 19:23 | 36.69542 | 3.02738 | 3172 ft | 165 kts | 92° |
| 2026-04-21 19:23 | 36.69491 | 3.04177 | 2690 ft | 166 kts | 93° |
| 2026-04-21 19:23 | 36.69444 | 3.05621 | 2066 ft | 166 kts | 91° |
| 2026-04-21 19:24 | 36.69414 | 3.07011 | 1714 ft | 154 kts | 90° |
| 2026-04-21 19:24 | 36.69405 | 3.08312 | 1356 ft | 146 kts | 90° |
| 2026-04-21 19:24 | 36.69376 | 3.09548 | 1111 ft | 140 kts | 91° |
| 2026-04-21 19:24 | 36.69360 | 3.10748 | 890 ft | 136 kts | 91° |
| 2026-04-21 19:25 | 36.69328 | 3.11907 | 727 ft | 133 kts | 92° |
| 2026-04-21 19:25 | 36.69294 | 3.13063 | 610 ft | 134 kts | 91° |
| 2026-04-21 19:25 | 36.69272 | 3.14226 | 469 ft | 135 kts | 90° |
| 2026-04-21 19:25 | 36.69240 | 3.15389 | 328 ft | 134 kts | 90° |
| 2026-04-21 19:26 | 36.69221 | 3.16534 | 178 ft | 132 kts | 90° |
| 2026-04-21 19:26 | 36.69191 | 3.17662 | 64 ft | 124 kts | 91° |
| 2026-04-21 19:26 | 36.69170 | 3.18623 | 77 ft | 98 kts | 93° |
| 2026-04-21 19:26 | 36.69152 | 3.19385 | 66 ft | 80 kts | 90° |
| 2026-04-21 19:27 | 36.69138 | 3.20016 | 78 ft | 66 kts | 93° |
| 2026-04-21 19:27 | 36.69125 | 3.20550 | 83 ft | 58 kts | 92° |
| 2026-04-21 19:27 | 36.69124 | 3.20882 | 85 ft | 18 kts | 73° |
| 2026-04-21 19:27 | 36.69208 | 3.20948 | 85 ft | 15 kts | 350° |
| 2026-04-21 19:28 | 36.69243 | 3.20935 | 84 ft | 0 kts | 340° |